Jamesville, North Carolina
Current Conditions -  °F | °C
As of 10:15 AM on Monday 24 Nov 2014 (Local Time) from KOCW Reporting Station
Scattered Clouds Scattered Clouds  
Wind Chill: 70°   Ceiling: Unl
Heat Index: 70°   Visibility: 10mi
Dew Point: 65°   Wind: 7mph
Humidity: 86%   Direction: 200°SSW
Pressure: 29.88"   Gusts: NA
Location:  35.81°N, 76.9°W
Report Text: KOCW 241515Z AUTO 20006KT 10SM SCT012 SCT017 SCT025 21/19 A2988 RMK AO2 T02100186
Loading
Personal Weather Stations






























Interactive Weather Map New forecast layout! Learn more

10-Day Weather Forecast

Advertisements
Track Severe Weather on mobile